sensor_id;sensor_type;location;lat;lon;timestamp;P1;durP1;ratioP1;P2;durP2;ratioP2
74777;SDS011;63298;53.164;8.610;2024-01-11T00:01:57;41.33;;;15.27;;
74777;SDS011;63298;53.164;8.610;2024-01-11T00:04:23;36.13;;;14.80;;
74777;SDS011;63298;53.164;8.610;2024-01-11T00:06:49;46.08;;;16.15;;
74777;SDS011;63298;53.164;8.610;2024-01-11T00:09:18;38.88;;;15.50;;
74777;SDS011;63298;53.164;8.610;2024-01-11T00:11:49;37.17;;;14.80;;
74777;SDS011;63298;53.164;8.610;2024-01-11T00:14:14;36.70;;;14.55;;
74777;SDS011;63298;53.164;8.610;2024-01-11T00:19:24;39.08;;;16.08;;
74777;SDS011;63298;53.164;8.610;2024-01-11T00:22:05;39.92;;;14.82;;
74777;SDS011;63298;53.164;8.610;2024-01-11T00:24:33;38.03;;;15.30;;
74777;SDS011;63298;53.164;8.610;2024-01-11T00:27:05;42.90;;;15.65;;
74777;SDS011;63298;53.164;8.610;2024-01-11T00:29:30;41.10;;;16.27;;
74777;SDS011;63298;53.164;8.610;2024-01-11T00:31:56;40.58;;;16.23;;
74777;SDS011;63298;53.164;8.610;2024-01-11T00:34:24;38.78;;;15.25;;
74777;SDS011;63298;53.164;8.610;2024-01-11T00:37:02;39.33;;;14.50;;
74777;SDS011;63298;53.164;8.610;2024-01-11T00:39:34;37.25;;;14.20;;
74777;SDS011;63298;53.164;8.610;2024-01-11T00:42:00;26.73;;;11.80;;
74777;SDS011;63298;53.164;8.610;2024-01-11T00:44:28;40.45;;;14.38;;
74777;SDS011;63298;53.164;8.610;2024-01-11T00:46:53;37.30;;;15.18;;
74777;SDS011;63298;53.164;8.610;2024-01-11T00:49:18;43.83;;;16.13;;
74777;SDS011;63298;53.164;8.610;2024-01-11T00:51:44;38.28;;;14.10;;
74777;SDS011;63298;53.164;8.610;2024-01-11T00:54:09;42.17;;;15.07;;
74777;SDS011;63298;53.164;8.610;2024-01-11T00:56:36;42.70;;;15.93;;
74777;SDS011;63298;53.164;8.610;2024-01-11T00:59:03;48.92;;;17.42;;
74777;SDS011;63298;53.164;8.610;2024-01-11T01:01:29;45.47;;;16.52;;
74777;SDS011;63298;53.164;8.610;2024-01-11T01:03:54;40.72;;;14.93;;
74777;SDS011;63298;53.164;8.610;2024-01-11T01:06:19;43.80;;;15.48;;
74777;SDS011;63298;53.164;8.610;2024-01-11T01:08:45;45.28;;;14.48;;
74777;SDS011;63298;53.164;8.610;2024-01-11T01:11:10;40.08;;;15.70;;
74777;SDS011;63298;53.164;8.610;2024-01-11T01:13:35;43.20;;;16.90;;
74777;SDS011;63298;53.164;8.610;2024-01-11T01:16:01;43.50;;;16.13;;
74777;SDS011;63298;53.164;8.610;2024-01-11T01:18:26;41.83;;;16.23;;
74777;SDS011;63298;53.164;8.610;2024-01-11T01:20:52;40.92;;;15.55;;
74777;SDS011;63298;53.164;8.610;2024-01-11T01:23:17;43.78;;;15.90;;
74777;SDS011;63298;53.164;8.610;2024-01-11T01:29:04;41.30;;;15.00;;
74777;SDS011;63298;53.164;8.610;2024-01-11T01:31:32;44.42;;;15.65;;
74777;SDS011;63298;53.164;8.610;2024-01-11T01:34:00;40.28;;;15.80;;
74777;SDS011;63298;53.164;8.610;2024-01-11T01:36:26;37.58;;;14.88;;
74777;SDS011;63298;53.164;8.610;2024-01-11T01:49:00;36.28;;;13.15;;
74777;SDS011;63298;53.164;8.610;2024-01-11T01:51:28;42.97;;;16.58;;
74777;SDS011;63298;53.164;8.610;2024-01-11T01:53:55;39.38;;;14.98;;
74777;SDS011;63298;53.164;8.610;2024-01-11T01:56:25;43.90;;;16.02;;
74777;SDS011;63298;53.164;8.610;2024-01-11T01:58:54;42.83;;;14.73;;
74777;SDS011;63298;53.164;8.610;2024-01-11T02:01:20;36.08;;;15.32;;
74777;SDS011;63298;53.164;8.610;2024-01-11T02:03:50;43.78;;;15.85;;
74777;SDS011;63298;53.164;8.610;2024-01-11T02:06:21;43.50;;;15.38;;
74777;SDS011;63298;53.164;8.610;2024-01-11T02:11:53;41.17;;;13.88;;
74777;SDS011;63298;53.164;8.610;2024-01-11T02:14:22;41.53;;;15.02;;
74777;SDS011;63298;53.164;8.610;2024-01-11T02:20:12;45.20;;;15.70;;
74777;SDS011;63298;53.164;8.610;2024-01-11T02:22:40;36.70;;;15.40;;
74777;SDS011;63298;53.164;8.610;2024-01-11T02:25:08;42.50;;;15.77;;
74777;SDS011;63298;53.164;8.610;2024-01-11T02:27:46;41.72;;;14.93;;
74777;SDS011;63298;53.164;8.610;2024-01-11T02:33:04;41.58;;;15.50;;
74777;SDS011;63298;53.164;8.610;2024-01-11T02:35:30;49.42;;;16.80;;
74777;SDS011;63298;53.164;8.610;2024-01-11T02:37:56;40.22;;;13.43;;
74777;SDS011;63298;53.164;8.610;2024-01-11T02:40:25;46.75;;;16.50;;
74777;SDS011;63298;53.164;8.610;2024-01-11T02:42:51;37.25;;;14.30;;
74777;SDS011;63298;53.164;8.610;2024-01-11T02:45:16;46.78;;;15.75;;
74777;SDS011;63298;53.164;8.610;2024-01-11T02:47:42;48.20;;;16.60;;
74777;SDS011;63298;53.164;8.610;2024-01-11T02:50:10;43.15;;;15.88;;
74777;SDS011;63298;53.164;8.610;2024-01-11T02:52:38;45.72;;;16.75;;
74777;SDS011;63298;53.164;8.610;2024-01-11T02:55:04;42.72;;;15.80;;
74777;SDS011;63298;53.164;8.610;2024-01-11T02:57:29;43.08;;;16.10;;
74777;SDS011;63298;53.164;8.610;2024-01-11T03:00:07;44.25;;;14.70;;
74777;SDS011;63298;53.164;8.610;2024-01-11T03:02:33;41.03;;;14.82;;
74777;SDS011;63298;53.164;8.610;2024-01-11T03:05:16;43.42;;;15.85;;
74777;SDS011;63298;53.164;8.610;2024-01-11T03:07:45;45.00;;;17.00;;
74777;SDS011;63298;53.164;8.610;2024-01-11T03:10:10;44.67;;;14.52;;
74777;SDS011;63298;53.164;8.610;2024-01-11T03:12:36;44.15;;;16.17;;
74777;SDS011;63298;53.164;8.610;2024-01-11T03:15:04;45.72;;;16.75;;
74777;SDS011;63298;53.164;8.610;2024-01-11T03:17:30;50.53;;;17.88;;
74777;SDS011;63298;53.164;8.610;2024-01-11T03:19:55;50.10;;;17.27;;
74777;SDS011;63298;53.164;8.610;2024-01-11T03:22:21;44.95;;;16.88;;
74777;SDS011;63298;53.164;8.610;2024-01-11T03:24:49;44.38;;;16.60;;
74777;SDS011;63298;53.164;8.610;2024-01-11T03:27:14;43.47;;;15.60;;
74777;SDS011;63298;53.164;8.610;2024-01-11T03:35:00;35.35;;;14.43;;
74777;SDS011;63298;53.164;8.610;2024-01-11T03:37:25;41.55;;;15.60;;
74777;SDS011;63298;53.164;8.610;2024-01-11T03:39:51;39.75;;;14.90;;
74777;SDS011;63298;53.164;8.610;2024-01-11T03:42:16;48.47;;;16.08;;
74777;SDS011;63298;53.164;8.610;2024-01-11T03:44:42;40.63;;;16.00;;
74777;SDS011;63298;53.164;8.610;2024-01-11T03:47:10;39.17;;;14.55;;
74777;SDS011;63298;53.164;8.610;2024-01-11T03:49:38;44.45;;;15.50;;
74777;SDS011;63298;53.164;8.610;2024-01-11T03:52:04;42.45;;;14.65;;
74777;SDS011;63298;53.164;8.610;2024-01-11T03:54:30;36.55;;;14.88;;
74777;SDS011;63298;53.164;8.610;2024-01-11T03:56:55;42.13;;;15.80;;
74777;SDS011;63298;53.164;8.610;2024-01-11T03:59:21;38.63;;;14.27;;
74777;SDS011;63298;53.164;8.610;2024-01-11T04:01:46;36.83;;;14.70;;
74777;SDS011;63298;53.164;8.610;2024-01-11T04:04:12;40.00;;;14.82;;
74777;SDS011;63298;53.164;8.610;2024-01-11T04:09:59;39.08;;;14.02;;
74777;SDS011;63298;53.164;8.610;2024-01-11T04:12:24;46.70;;;15.70;;
74777;SDS011;63298;53.164;8.610;2024-01-11T04:14:50;35.35;;;14.35;;
74777;SDS011;63298;53.164;8.610;2024-01-11T04:17:15;35.05;;;14.32;;
74777;SDS011;63298;53.164;8.610;2024-01-11T04:19:41;34.35;;;12.77;;
74777;SDS011;63298;53.164;8.610;2024-01-11T04:22:06;34.05;;;13.48;;
74777;SDS011;63298;53.164;8.610;2024-01-11T04:24:31;35.42;;;12.48;;
74777;SDS011;63298;53.164;8.610;2024-01-11T04:26:57;45.22;;;14.00;;
74777;SDS011;63298;53.164;8.610;2024-01-11T04:29:22;34.83;;;13.55;;
74777;SDS011;63298;53.164;8.610;2024-01-11T04:31:48;33.65;;;12.95;;
74777;SDS011;63298;53.164;8.610;2024-01-11T04:34:15;33.00;;;12.65;;
74777;SDS011;63298;53.164;8.610;2024-01-11T04:36:41;37.38;;;13.57;;
74777;SDS011;63298;53.164;8.610;2024-01-11T04:39:06;34.78;;;13.65;;
74777;SDS011;63298;53.164;8.610;2024-01-11T04:41:32;36.38;;;13.40;;
74777;SDS011;63298;53.164;8.610;2024-01-11T04:43:58;40.63;;;14.43;;
74777;SDS011;63298;53.164;8.610;2024-01-11T04:46:23;37.80;;;14.05;;
74777;SDS011;63298;53.164;8.610;2024-01-11T04:48:49;37.03;;;12.63;;
74777;SDS011;63298;53.164;8.610;2024-01-11T04:51:15;35.20;;;13.65;;
74777;SDS011;63298;53.164;8.610;2024-01-11T04:53:57;37.50;;;13.95;;
74777;SDS011;63298;53.164;8.610;2024-01-11T04:59:44;39.95;;;14.07;;
74777;SDS011;63298;53.164;8.610;2024-01-11T05:02:09;31.65;;;12.88;;
74777;SDS011;63298;53.164;8.610;2024-01-11T05:04:34;36.40;;;13.43;;
74777;SDS011;63298;53.164;8.610;2024-01-11T05:07:11;46.13;;;14.95;;
74777;SDS011;63298;53.164;8.610;2024-01-11T05:09:37;34.55;;;12.85;;
74777;SDS011;63298;53.164;8.610;2024-01-11T05:14:55;40.38;;;14.48;;
74777;SDS011;63298;53.164;8.610;2024-01-11T05:17:21;44.78;;;12.70;;
74777;SDS011;63298;53.164;8.610;2024-01-11T05:19:46;48.92;;;16.08;;
74777;SDS011;63298;53.164;8.610;2024-01-11T05:22:17;42.40;;;13.80;;
74777;SDS011;63298;53.164;8.610;2024-01-11T05:24:43;41.42;;;13.98;;
74777;SDS011;63298;53.164;8.610;2024-01-11T05:27:08;36.08;;;14.05;;
74777;SDS011;63298;53.164;8.610;2024-01-11T05:29:33;39.63;;;13.77;;
74777;SDS011;63298;53.164;8.610;2024-01-11T05:31:59;47.05;;;15.27;;
74777;SDS011;63298;53.164;8.610;2024-01-11T05:34:24;37.75;;;12.30;;
74777;SDS011;63298;53.164;8.610;2024-01-11T05:36:49;44.97;;;15.07;;
74777;SDS011;63298;53.164;8.610;2024-01-11T05:39:15;44.20;;;13.95;;
74777;SDS011;63298;53.164;8.610;2024-01-11T05:41:44;43.20;;;13.80;;
74777;SDS011;63298;53.164;8.610;2024-01-11T05:44:09;45.88;;;15.02;;
74777;SDS011;63298;53.164;8.610;2024-01-11T05:46:35;44.83;;;14.70;;
74777;SDS011;63298;53.164;8.610;2024-01-11T05:49:00;44.38;;;14.98;;
74777;SDS011;63298;53.164;8.610;2024-01-11T05:51:26;54.72;;;16.48;;
74777;SDS011;63298;53.164;8.610;2024-01-11T05:53:51;52.15;;;15.68;;
74777;SDS011;63298;53.164;8.610;2024-01-11T05:56:18;48.60;;;14.80;;
74777;SDS011;63298;53.164;8.610;2024-01-11T05:58:44;58.20;;;16.52;;
74777;SDS011;63298;53.164;8.610;2024-01-11T06:01:09;54.42;;;16.13;;
74777;SDS011;63298;53.164;8.610;2024-01-11T06:03:35;59.65;;;17.85;;
74777;SDS011;63298;53.164;8.610;2024-01-11T06:06:00;58.60;;;17.48;;
74777;SDS011;63298;53.164;8.610;2024-01-11T06:08:26;63.33;;;18.88;;
74777;SDS011;63298;53.164;8.610;2024-01-11T06:17:35;59.47;;;19.23;;
74777;SDS011;63298;53.164;8.610;2024-01-11T06:20:01;59.88;;;18.65;;
74777;SDS011;63298;53.164;8.610;2024-01-11T06:22:26;59.85;;;19.00;;
74777;SDS011;63298;53.164;8.610;2024-01-11T06:24:51;65.22;;;19.38;;
74777;SDS011;63298;53.164;8.610;2024-01-11T06:27:17;55.15;;;17.15;;
74777;SDS011;63298;53.164;8.610;2024-01-11T06:29:42;55.63;;;16.77;;
74777;SDS011;63298;53.164;8.610;2024-01-11T06:32:08;50.45;;;15.65;;
74777;SDS011;63298;53.164;8.610;2024-01-11T06:34:34;50.10;;;16.70;;
74777;SDS011;63298;53.164;8.610;2024-01-11T06:37:00;51.95;;;17.17;;
74777;SDS011;63298;53.164;8.610;2024-01-11T06:39:25;59.40;;;17.83;;
74777;SDS011;63298;53.164;8.610;2024-01-11T06:41:50;62.13;;;18.00;;
74777;SDS011;63298;53.164;8.610;2024-01-11T06:44:16;55.88;;;18.38;;
74777;SDS011;63298;53.164;8.610;2024-01-11T06:46:41;56.40;;;17.20;;
74777;SDS011;63298;53.164;8.610;2024-01-11T06:49:09;56.25;;;17.27;;
74777;SDS011;63298;53.164;8.610;2024-01-11T06:51:35;60.80;;;17.13;;
74777;SDS011;63298;53.164;8.610;2024-01-11T06:54:00;57.45;;;20.60;;
74777;SDS011;63298;53.164;8.610;2024-01-11T06:56:26;56.33;;;17.40;;
74777;SDS011;63298;53.164;8.610;2024-01-11T06:58:52;59.42;;;17.63;;
74777;SDS011;63298;53.164;8.610;2024-01-11T07:01:17;49.00;;;16.92;;
74777;SDS011;63298;53.164;8.610;2024-01-11T07:03:43;64.28;;;18.73;;
74777;SDS011;63298;53.164;8.610;2024-01-11T07:06:08;51.00;;;15.82;;
74777;SDS011;63298;53.164;8.610;2024-01-11T07:08:34;55.75;;;17.13;;
74777;SDS011;63298;53.164;8.610;2024-01-11T07:11:00;60.30;;;19.45;;
74777;SDS011;63298;53.164;8.610;2024-01-11T07:13:29;63.40;;;18.20;;
74777;SDS011;63298;53.164;8.610;2024-01-11T07:15:55;56.60;;;16.95;;
74777;SDS011;63298;53.164;8.610;2024-01-11T07:22:05;50.50;;;16.17;;
74777;SDS011;63298;53.164;8.610;2024-01-11T07:28:07;62.67;;;18.00;;
74777;SDS011;63298;53.164;8.610;2024-01-11T07:30:47;49.28;;;16.08;;
74777;SDS011;63298;53.164;8.610;2024-01-11T07:33:57;52.35;;;16.45;;
74777;SDS011;63298;53.164;8.610;2024-01-11T07:36:34;55.08;;;16.90;;
74777;SDS011;63298;53.164;8.610;2024-01-11T07:39:27;48.97;;;14.38;;
74777;SDS011;63298;53.164;8.610;2024-01-11T07:41:53;58.83;;;17.45;;
74777;SDS011;63298;53.164;8.610;2024-01-11T07:44:18;62.95;;;17.83;;
74777;SDS011;63298;53.164;8.610;2024-01-11T07:46:44;49.13;;;16.02;;
74777;SDS011;63298;53.164;8.610;2024-01-11T07:49:09;57.55;;;17.80;;
74777;SDS011;63298;53.164;8.610;2024-01-11T07:51:35;55.20;;;17.55;;
74777;SDS011;63298;53.164;8.610;2024-01-11T08:00:22;60.17;;;18.77;;
74777;SDS011;63298;53.164;8.610;2024-01-11T08:03:34;52.97;;;16.30;;
74777;SDS011;63298;53.164;8.610;2024-01-11T08:06:38;59.97;;;17.08;;
74777;SDS011;63298;53.164;8.610;2024-01-11T08:12:34;59.22;;;19.40;;
74777;SDS011;63298;53.164;8.610;2024-01-11T08:15:00;56.25;;;17.92;;
74777;SDS011;63298;53.164;8.610;2024-01-11T08:17:26;67.10;;;17.58;;
74777;SDS011;63298;53.164;8.610;2024-01-11T08:19:51;68.35;;;18.95;;
74777;SDS011;63298;53.164;8.610;2024-01-11T08:22:17;51.42;;;18.58;;
74777;SDS011;63298;53.164;8.610;2024-01-11T08:24:42;75.05;;;20.60;;
74777;SDS011;63298;53.164;8.610;2024-01-11T08:27:11;71.03;;;18.92;;
74777;SDS011;63298;53.164;8.610;2024-01-11T08:29:36;68.55;;;18.33;;
74777;SDS011;63298;53.164;8.610;2024-01-11T08:32:02;65.53;;;18.95;;
74777;SDS011;63298;53.164;8.610;2024-01-11T08:34:27;68.15;;;18.27;;
74777;SDS011;63298;53.164;8.610;2024-01-11T08:37:10;63.63;;;19.40;;
74777;SDS011;63298;53.164;8.610;2024-01-11T08:40:34;67.68;;;20.73;;
74777;SDS011;63298;53.164;8.610;2024-01-11T08:46:42;63.92;;;18.63;;
74777;SDS011;63298;53.164;8.610;2024-01-11T08:49:07;62.65;;;20.23;;
74777;SDS011;63298;53.164;8.610;2024-01-11T08:51:33;64.18;;;18.63;;
74777;SDS011;63298;53.164;8.610;2024-01-11T08:54:01;69.35;;;20.67;;
74777;SDS011;63298;53.164;8.610;2024-01-11T08:56:29;57.88;;;19.10;;
74777;SDS011;63298;53.164;8.610;2024-01-11T08:59:03;62.38;;;19.48;;
74777;SDS011;63298;53.164;8.610;2024-01-11T09:02:07;64.53;;;18.77;;
74777;SDS011;63298;53.164;8.610;2024-01-11T09:04:32;70.65;;;21.20;;
74777;SDS011;63298;53.164;8.610;2024-01-11T09:06:58;67.53;;;19.17;;
74777;SDS011;63298;53.164;8.610;2024-01-11T09:09:23;63.92;;;20.60;;
74777;SDS011;63298;53.164;8.610;2024-01-11T09:15:15;65.82;;;19.92;;
74777;SDS011;63298;53.164;8.610;2024-01-11T09:21:10;66.93;;;20.08;;
74777;SDS011;63298;53.164;8.610;2024-01-11T09:23:36;66.38;;;20.00;;
74777;SDS011;63298;53.164;8.610;2024-01-11T09:26:04;58.25;;;19.23;;
74777;SDS011;63298;53.164;8.610;2024-01-11T09:28:30;59.15;;;19.42;;
74777;SDS011;63298;53.164;8.610;2024-01-11T09:30:55;84.38;;;26.55;;
74777;SDS011;63298;53.164;8.610;2024-01-11T09:33:21;93.82;;;31.10;;
74777;SDS011;63298;53.164;8.610;2024-01-11T09:35:48;65.43;;;21.48;;
74777;SDS011;63298;53.164;8.610;2024-01-11T09:38:14;72.68;;;23.70;;
74777;SDS011;63298;53.164;8.610;2024-01-11T09:40:39;65.80;;;20.52;;
74777;SDS011;63298;53.164;8.610;2024-01-11T09:43:05;67.40;;;20.52;;
74777;SDS011;63298;53.164;8.610;2024-01-11T09:48:04;57.65;;;17.35;;
74777;SDS011;63298;53.164;8.610;2024-01-11T09:50:31;65.03;;;19.85;;
74777;SDS011;63298;53.164;8.610;2024-01-11T09:52:57;52.80;;;18.10;;
74777;SDS011;63298;53.164;8.610;2024-01-11T09:55:23;60.45;;;21.08;;
74777;SDS011;63298;53.164;8.610;2024-01-11T09:57:48;62.45;;;20.10;;
74777;SDS011;63298;53.164;8.610;2024-01-11T10:00:22;60.67;;;19.38;;
74777;SDS011;63298;53.164;8.610;2024-01-11T10:02:48;51.63;;;17.10;;
74777;SDS011;63298;53.164;8.610;2024-01-11T10:05:15;63.55;;;19.80;;
74777;SDS011;63298;53.164;8.610;2024-01-11T10:07:42;55.05;;;17.58;;
74777;SDS011;63298;53.164;8.610;2024-01-11T10:10:11;63.50;;;19.90;;
74777;SDS011;63298;53.164;8.610;2024-01-11T10:12:37;59.58;;;17.30;;
74777;SDS011;63298;53.164;8.610;2024-01-11T10:15:07;53.28;;;17.52;;
74777;SDS011;63298;53.164;8.610;2024-01-11T10:17:34;58.67;;;18.25;;
74777;SDS011;63298;53.164;8.610;2024-01-11T10:20:02;60.65;;;17.88;;
74777;SDS011;63298;53.164;8.610;2024-01-11T10:22:28;58.50;;;19.52;;
74777;SDS011;63298;53.164;8.610;2024-01-11T10:25:09;63.83;;;19.42;;
74777;SDS011;63298;53.164;8.610;2024-01-11T10:30:12;54.92;;;15.38;;
74777;SDS011;63298;53.164;8.610;2024-01-11T10:32:47;65.78;;;20.25;;
74777;SDS011;63298;53.164;8.610;2024-01-11T10:35:18;56.00;;;16.98;;
74777;SDS011;63298;53.164;8.610;2024-01-11T10:41:51;57.97;;;17.73;;
74777;SDS011;63298;53.164;8.610;2024-01-11T10:44:22;64.82;;;18.45;;
74777;SDS011;63298;53.164;8.610;2024-01-11T10:46:50;59.15;;;18.42;;
74777;SDS011;63298;53.164;8.610;2024-01-11T10:49:25;60.92;;;18.77;;
74777;SDS011;63298;53.164;8.610;2024-01-11T10:51:59;58.17;;;19.02;;
74777;SDS011;63298;53.164;8.610;2024-01-11T10:54:30;68.60;;;19.05;;
74777;SDS011;63298;53.164;8.610;2024-01-11T10:57:01;58.05;;;16.95;;
74777;SDS011;63298;53.164;8.610;2024-01-11T10:59:27;49.17;;;16.30;;
74777;SDS011;63298;53.164;8.610;2024-01-11T11:01:57;59.17;;;17.85;;
74777;SDS011;63298;53.164;8.610;2024-01-11T11:04:32;51.92;;;16.25;;
74777;SDS011;63298;53.164;8.610;2024-01-11T11:07:04;49.40;;;16.73;;
74777;SDS011;63298;53.164;8.610;2024-01-11T11:09:39;57.50;;;17.98;;
74777;SDS011;63298;53.164;8.610;2024-01-11T11:12:11;64.63;;;20.02;;
74777;SDS011;63298;53.164;8.610;2024-01-11T11:14:49;63.78;;;18.88;;
74777;SDS011;63298;53.164;8.610;2024-01-11T11:17:16;54.45;;;16.33;;
74777;SDS011;63298;53.164;8.610;2024-01-11T11:19:46;64.18;;;19.88;;
74777;SDS011;63298;53.164;8.610;2024-01-11T11:22:13;58.38;;;18.80;;
74777;SDS011;63298;53.164;8.610;2024-01-11T11:24:38;54.53;;;17.20;;
74777;SDS011;63298;53.164;8.610;2024-01-11T11:27:16;55.33;;;19.27;;
74777;SDS011;63298;53.164;8.610;2024-01-11T11:29:46;51.47;;;17.75;;
74777;SDS011;63298;53.164;8.610;2024-01-11T11:32:12;45.53;;;15.07;;
74777;SDS011;63298;53.164;8.610;2024-01-11T11:34:48;55.00;;;17.80;;
74777;SDS011;63298;53.164;8.610;2024-01-11T11:40:13;49.40;;;15.63;;
74777;SDS011;63298;53.164;8.610;2024-01-11T11:42:42;47.38;;;16.55;;
74777;SDS011;63298;53.164;8.610;2024-01-11T11:45:13;49.83;;;16.48;;
74777;SDS011;63298;53.164;8.610;2024-01-11T11:47:50;53.85;;;18.27;;
74777;SDS011;63298;53.164;8.610;2024-01-11T11:50:31;52.75;;;17.23;;
74777;SDS011;63298;53.164;8.610;2024-01-11T11:52:59;50.22;;;16.90;;
74777;SDS011;63298;53.164;8.610;2024-01-11T11:55:32;52.35;;;16.63;;
74777;SDS011;63298;53.164;8.610;2024-01-11T11:58:01;45.92;;;16.23;;
74777;SDS011;63298;53.164;8.610;2024-01-11T12:00:26;49.58;;;17.52;;
74777;SDS011;63298;53.164;8.610;2024-01-11T12:02:58;52.67;;;17.48;;
74777;SDS011;63298;53.164;8.610;2024-01-11T12:05:27;47.20;;;16.77;;
74777;SDS011;63298;53.164;8.610;2024-01-11T12:07:55;55.45;;;18.25;;
74777;SDS011;63298;53.164;8.610;2024-01-11T12:10:29;58.33;;;18.00;;
74777;SDS011;63298;53.164;8.610;2024-01-11T12:13:00;45.78;;;16.05;;
74777;SDS011;63298;53.164;8.610;2024-01-11T12:15:37;49.90;;;15.65;;
74777;SDS011;63298;53.164;8.610;2024-01-11T12:20:40;46.42;;;14.48;;
74777;SDS011;63298;53.164;8.610;2024-01-11T12:23:10;52.22;;;16.48;;
74777;SDS011;63298;53.164;8.610;2024-01-11T12:25:38;57.03;;;16.10;;
74777;SDS011;63298;53.164;8.610;2024-01-11T12:28:14;46.72;;;15.60;;
74777;SDS011;63298;53.164;8.610;2024-01-11T12:30:42;44.70;;;14.95;;
74777;SDS011;63298;53.164;8.610;2024-01-11T12:33:21;38.30;;;14.32;;
74777;SDS011;63298;53.164;8.610;2024-01-11T12:35:52;41.78;;;15.63;;
74777;SDS011;63298;53.164;8.610;2024-01-11T12:38:27;48.85;;;15.52;;
74777;SDS011;63298;53.164;8.610;2024-01-11T12:40:53;40.33;;;14.00;;
74777;SDS011;63298;53.164;8.610;2024-01-11T12:43:18;41.20;;;13.80;;
74777;SDS011;63298;53.164;8.610;2024-01-11T12:45:55;41.97;;;14.63;;
74777;SDS011;63298;53.164;8.610;2024-01-11T12:48:21;44.33;;;15.82;;
74777;SDS011;63298;53.164;8.610;2024-01-11T12:50:54;44.22;;;15.05;;
74777;SDS011;63298;53.164;8.610;2024-01-11T12:53:20;43.65;;;14.82;;
74777;SDS011;63298;53.164;8.610;2024-01-11T12:55:46;43.53;;;15.45;;
74777;SDS011;63298;53.164;8.610;2024-01-11T12:58:26;43.65;;;14.60;;
74777;SDS011;63298;53.164;8.610;2024-01-11T13:00:52;43.47;;;16.10;;
74777;SDS011;63298;53.164;8.610;2024-01-11T13:03:18;40.88;;;14.05;;
74777;SDS011;63298;53.164;8.610;2024-01-11T13:05:44;48.65;;;16.08;;
74777;SDS011;63298;53.164;8.610;2024-01-11T13:08:10;37.67;;;14.43;;
74777;SDS011;63298;53.164;8.610;2024-01-11T13:10:39;41.50;;;14.18;;
74777;SDS011;63298;53.164;8.610;2024-01-11T13:13:04;40.47;;;15.07;;
74777;SDS011;63298;53.164;8.610;2024-01-11T13:15:41;37.67;;;14.13;;
74777;SDS011;63298;53.164;8.610;2024-01-11T13:18:09;43.10;;;14.45;;
74777;SDS011;63298;53.164;8.610;2024-01-11T13:20:34;42.60;;;14.18;;
74777;SDS011;63298;53.164;8.610;2024-01-11T13:23:16;36.15;;;13.02;;
74777;SDS011;63298;53.164;8.610;2024-01-11T13:25:46;35.25;;;13.48;;
74777;SDS011;63298;53.164;8.610;2024-01-11T13:28:19;34.08;;;12.25;;
74777;SDS011;63298;53.164;8.610;2024-01-11T13:30:50;37.47;;;13.38;;
74777;SDS011;63298;53.164;8.610;2024-01-11T13:33:15;41.17;;;14.20;;
74777;SDS011;63298;53.164;8.610;2024-01-11T13:35:41;44.88;;;13.27;;
74777;SDS011;63298;53.164;8.610;2024-01-11T13:38:20;35.20;;;12.63;;
74777;SDS011;63298;53.164;8.610;2024-01-11T13:40:46;39.95;;;14.07;;
74777;SDS011;63298;53.164;8.610;2024-01-11T13:43:12;32.65;;;12.75;;
74777;SDS011;63298;53.164;8.610;2024-01-11T13:45:40;35.00;;;12.88;;
74777;SDS011;63298;53.164;8.610;2024-01-11T13:48:08;32.55;;;12.02;;
74777;SDS011;63298;53.164;8.610;2024-01-11T13:50:34;28.95;;;11.15;;
74777;SDS011;63298;53.164;8.610;2024-01-11T13:53:09;38.30;;;12.77;;
74777;SDS011;63298;53.164;8.610;2024-01-11T13:56:03;27.60;;;10.63;;
74777;SDS011;63298;53.164;8.610;2024-01-11T13:58:49;34.25;;;11.70;;
74777;SDS011;63298;53.164;8.610;2024-01-11T14:01:33;30.70;;;11.50;;
74777;SDS011;63298;53.164;8.610;2024-01-11T14:04:02;27.05;;;11.65;;
74777;SDS011;63298;53.164;8.610;2024-01-11T14:06:32;29.48;;;12.23;;
74777;SDS011;63298;53.164;8.610;2024-01-11T14:09:08;29.48;;;11.60;;
74777;SDS011;63298;53.164;8.610;2024-01-11T14:11:54;32.35;;;12.88;;
74777;SDS011;63298;53.164;8.610;2024-01-11T14:14:20;30.77;;;12.60;;
74777;SDS011;63298;53.164;8.610;2024-01-11T14:16:45;33.38;;;12.93;;
74777;SDS011;63298;53.164;8.610;2024-01-11T14:19:14;35.15;;;13.63;;
74777;SDS011;63298;53.164;8.610;2024-01-11T14:21:44;31.45;;;13.40;;
74777;SDS011;63298;53.164;8.610;2024-01-11T14:24:13;27.23;;;10.73;;
74777;SDS011;63298;53.164;8.610;2024-01-11T14:26:44;32.67;;;12.05;;
74777;SDS011;63298;53.164;8.610;2024-01-11T14:29:20;28.70;;;12.35;;
74777;SDS011;63298;53.164;8.610;2024-01-11T14:31:53;34.10;;;12.00;;
74777;SDS011;63298;53.164;8.610;2024-01-11T14:34:27;32.00;;;13.50;;
74777;SDS011;63298;53.164;8.610;2024-01-11T14:37:05;28.65;;;12.18;;
74777;SDS011;63298;53.164;8.610;2024-01-11T14:39:45;31.77;;;11.98;;
74777;SDS011;63298;53.164;8.610;2024-01-11T14:42:17;30.27;;;12.50;;
74777;SDS011;63298;53.164;8.610;2024-01-11T14:44:42;40.28;;;15.60;;
74777;SDS011;63298;53.164;8.610;2024-01-11T14:47:11;42.03;;;15.23;;
74777;SDS011;63298;53.164;8.610;2024-01-11T14:49:43;32.78;;;12.63;;
74777;SDS011;63298;53.164;8.610;2024-01-11T14:52:20;34.65;;;13.05;;
74777;SDS011;63298;53.164;8.610;2024-01-11T14:54:50;31.38;;;12.68;;
74777;SDS011;63298;53.164;8.610;2024-01-11T14:57:42;34.20;;;14.13;;
74777;SDS011;63298;53.164;8.610;2024-01-11T15:00:35;37.25;;;14.57;;
74777;SDS011;63298;53.164;8.610;2024-01-11T15:03:31;40.47;;;14.75;;
74777;SDS011;63298;53.164;8.610;2024-01-11T15:05:59;33.80;;;13.23;;
74777;SDS011;63298;53.164;8.610;2024-01-11T15:08:27;38.15;;;13.63;;
74777;SDS011;63298;53.164;8.610;2024-01-11T15:11:19;30.38;;;13.13;;
74777;SDS011;63298;53.164;8.610;2024-01-11T15:13:48;31.42;;;13.18;;
74777;SDS011;63298;53.164;8.610;2024-01-11T15:16:21;26.95;;;10.85;;
74777;SDS011;63298;53.164;8.610;2024-01-11T15:19:01;34.97;;;12.65;;
74777;SDS011;63298;53.164;8.610;2024-01-11T15:21:47;34.38;;;13.35;;
74777;SDS011;63298;53.164;8.610;2024-01-11T15:24:50;38.78;;;16.20;;
74777;SDS011;63298;53.164;8.610;2024-01-11T15:28:17;37.15;;;15.00;;
74777;SDS011;63298;53.164;8.610;2024-01-11T15:30:48;32.72;;;11.98;;
74777;SDS011;63298;53.164;8.610;2024-01-11T15:36:48;37.70;;;13.40;;
74777;SDS011;63298;53.164;8.610;2024-01-11T15:39:44;22.52;;;10.18;;
74777;SDS011;63298;53.164;8.610;2024-01-11T15:42:41;30.92;;;11.43;;
74777;SDS011;63298;53.164;8.610;2024-01-11T15:45:31;27.30;;;10.73;;
74777;SDS011;63298;53.164;8.610;2024-01-11T15:48:13;27.48;;;11.35;;
74777;SDS011;63298;53.164;8.610;2024-01-11T15:58:11;32.17;;;12.90;;
74777;SDS011;63298;53.164;8.610;2024-01-11T16:05:28;26.52;;;11.50;;
74777;SDS011;63298;53.164;8.610;2024-01-11T16:08:23;31.50;;;11.77;;
74777;SDS011;63298;53.164;8.610;2024-01-11T16:11:48;24.60;;;11.88;;
74777;SDS011;63298;53.164;8.610;2024-01-11T16:14:32;27.60;;;12.52;;
74777;SDS011;63298;53.164;8.610;2024-01-11T16:17:52;26.80;;;11.98;;
74777;SDS011;63298;53.164;8.610;2024-01-11T16:27:08;30.52;;;13.23;;
74777;SDS011;63298;53.164;8.610;2024-01-11T16:39:49;31.38;;;12.68;;
74777;SDS011;63298;53.164;8.610;2024-01-11T16:46:01;30.50;;;12.00;;